Time;durP1;ratioP1;P1;durP2;ratioP2;P2;SDS_P1;SDS_P2;PMS_P1;PMS_P2;Temp;Humidity;BMP_temperature;BMP_pressure;BME280_temperature;BME280_humidity;BME280_pressure;Samples;Min_cycle;Max_cycle;Signal;HPM_P1;HPM_P2
2022/10/04 00:01:26;;;;;;;20.58;7.47;;;12.00;99.90;;;;;;5112475;28;20189;-61
2022/10/04 00:04:02;;;;;;;15.48;7.22;;;12.00;99.90;;;;;;5112916;28;20048;-61
2022/10/04 00:06:29;;;;;;;11.70;6.65;;;11.90;99.90;;;;;;5113326;28;20043;-61
2022/10/04 00:09:01;;;;;;;13.45;6.25;;;12.00;99.90;;;;;;5112358;28;20043;-61
2022/10/04 00:11:31;;;;;;;19.25;8.00;;;11.90;99.90;;;;;;5094563;28;20067;-61
2022/10/04 00:14:01;;;;;;;12.35;6.80;;;12.00;99.90;;;;;;5112534;28;20105;-60
2022/10/04 00:16:34;;;;;;;17.65;6.85;;;12.00;99.90;;;;;;5113134;28;20052;-61
2022/10/04 00:19:21;;;;;;;11.48;7.05;;;12.00;99.90;;;;;;5094145;28;20051;-61
2022/10/04 00:22:16;;;;;;;12.23;6.53;;;12.00;99.90;;;;;;5093866;28;20100;-60
2022/10/04 00:25:19;;;;;;;11.73;6.55;;;12.00;99.90;;;;;;5094600;28;20056;-61
2022/10/04 00:28:24;;;;;;;16.80;5.95;;;12.00;99.90;;;;;;5113154;28;20048;-60
2022/10/04 00:31:07;;;;;;;15.00;7.05;;;12.00;99.90;;;;;;5112727;28;20097;-60
2022/10/04 00:33:38;;;;;;;13.45;6.93;;;11.90;99.90;;;;;;5092670;28;20096;-60
2022/10/04 00:36:37;;;;;;;15.05;6.65;;;11.90;99.90;;;;;;5093818;28;20552;-60
2022/10/04 00:39:16;;;;;;;20.38;7.47;;;11.90;99.90;;;;;;5112707;28;20050;-60
2022/10/04 00:41:56;;;;;;;14.55;7.22;;;11.90;99.90;;;;;;5094621;28;20074;-61
2022/10/04 00:44:30;;;;;;;11.48;6.32;;;11.90;99.90;;;;;;5112248;28;20051;-61
2022/10/04 00:46:59;;;;;;;15.27;6.70;;;11.90;99.90;;;;;;5112382;28;20052;-60
2022/10/04 00:49:32;;;;;;;15.52;6.43;;;11.80;99.90;;;;;;5093459;28;20048;-60
2022/10/04 00:52:06;;;;;;;14.18;7.07;;;11.80;99.90;;;;;;5094668;28;20055;-61
2022/10/04 00:54:37;;;;;;;13.85;6.40;;;11.80;99.90;;;;;;5115506;28;20097;-60
2022/10/04 00:57:07;;;;;;;14.98;6.40;;;11.80;99.90;;;;;;5097704;28;20117;-61
2022/10/04 00:59:38;;;;;;;11.27;7.00;;;11.70;99.90;;;;;;5116057;28;20046;-60
2022/10/04 01:02:07;;;;;;;14.27;6.32;;;11.70;99.90;;;;;;5116053;28;20047;-60
2022/10/04 01:04:44;;;;;;;10.73;6.82;;;11.70;99.90;;;;;;5097334;28;20071;-61
2022/10/04 01:07:16;;;;;;;10.68;6.03;;;11.60;99.90;;;;;;5116120;28;20051;-60
2022/10/04 01:09:51;;;;;;;21.05;6.65;;;11.60;99.90;;;;;;5115819;28;20108;-60
2022/10/04 01:12:27;;;;;;;14.80;7.43;;;11.60;99.90;;;;;;5115546;28;20048;-59
2022/10/04 01:15:02;;;;;;;15.13;6.80;;;11.50;99.90;;;;;;5096865;28;20047;-60
2022/10/04 01:17:29;;;;;;;16.65;7.45;;;11.50;99.90;;;;;;5115329;28;20051;-60
2022/10/04 01:19:58;;;;;;;15.40;7.30;;;11.50;99.90;;;;;;5115772;28;20048;-60
2022/10/04 01:22:39;;;;;;;13.20;6.57;;;11.50;99.90;;;;;;5097061;28;20059;-60
2022/10/04 01:25:07;;;;;;;13.60;6.65;;;11.50;99.90;;;;;;5114844;28;20047;-60
2022/10/04 01:27:37;;;;;;;15.52;7.22;;;11.50;99.90;;;;;;5096488;28;20063;-60
2022/10/04 01:30:08;;;;;;;15.07;7.18;;;11.50;99.90;;;;;;5096459;28;20563;-60
2022/10/04 01:32:36;;;;;;;13.02;7.07;;;11.50;99.90;;;;;;5096663;28;20101;-61
2022/10/04 01:35:04;;;;;;;13.13;6.13;;;11.50;99.90;;;;;;5097038;28;20108;-61
2022/10/04 01:37:31;;;;;;;10.00;6.43;;;11.50;99.90;;;;;;5115047;28;20486;-61
2022/10/04 01:39:59;;;;;;;18.38;7.43;;;11.50;99.90;;;;;;5114940;28;20119;-60
2022/10/04 01:42:32;;;;;;;11.77;6.85;;;11.50;99.90;;;;;;5115271;28;20052;-61
2022/10/04 01:45:05;;;;;;;21.30;8.02;;;11.50;99.90;;;;;;5097328;28;20049;-61
2022/10/04 01:47:36;;;;;;;13.65;7.70;;;11.50;99.90;;;;;;5096532;28;20059;-61
2022/10/04 01:50:08;;;;;;;12.73;6.65;;;11.50;99.90;;;;;;5114853;28;20044;-60
2022/10/04 01:52:41;;;;;;;15.05;7.13;;;11.50;99.90;;;;;;5096518;28;20047;-60
2022/10/04 01:55:15;;;;;;;17.25;6.97;;;11.50;99.90;;;;;;5115353;28;20048;-60
2022/10/04 01:57:48;;;;;;;13.88;7.00;;;11.50;99.90;;;;;;5115010;28;20063;-61
2022/10/04 02:00:15;;;;;;;15.93;7.70;;;11.50;99.90;;;;;;5095509;28;20051;-61
2022/10/04 02:02:52;;;;;;;18.75;7.70;;;11.50;99.90;;;;;;5114836;28;20047;-61
2022/10/04 02:05:27;;;;;;;15.60;8.13;;;11.50;99.90;;;;;;5114651;28;20052;-60
2022/10/04 02:07:55;;;;;;;13.15;7.85;;;11.40;99.90;;;;;;5096232;28;20059;-60
2022/10/04 02:10:25;;;;;;;14.98;7.78;;;11.50;99.90;;;;;;5094913;28;20051;-60
2022/10/04 02:12:54;;;;;;;18.83;8.68;;;11.40;99.90;;;;;;5114735;28;20047;-61
2022/10/04 02:15:27;;;;;;;21.42;7.90;;;11.40;99.90;;;;;;5095297;28;20108;-61
2022/10/04 02:17:55;;;;;;;12.18;7.65;;;11.30;99.90;;;;;;5096224;28;20140;-60
2022/10/04 02:20:25;;;;;;;19.20;8.65;;;11.30;99.90;;;;;;5114251;28;20048;-60
2022/10/04 02:22:58;;;;;;;13.90;8.40;;;11.30;99.90;;;;;;5113712;28;20056;-60
2022/10/04 02:25:26;;;;;;;15.10;8.25;;;11.30;99.90;;;;;;5114317;28;20059;-60
2022/10/04 02:27:54;;;;;;;16.98;8.15;;;11.20;99.90;;;;;;5095558;28;20052;-60
2022/10/04 02:30:21;;;;;;;15.07;8.07;;;11.20;99.90;;;;;;5114203;28;20050;-60
2022/10/04 02:32:56;;;;;;;20.20;9.70;;;11.20;99.90;;;;;;5114331;28;20191;-60
2022/10/04 02:35:26;;;;;;;22.25;9.82;;;11.10;99.90;;;;;;5095579;28;20398;-60
2022/10/04 02:38:02;;;;;;;13.43;8.48;;;11.10;99.90;;;;;;5114076;28;20130;-60
2022/10/04 02:40:34;;;;;;;19.60;8.77;;;11.10;99.90;;;;;;5095629;28;20054;-60
2022/10/04 02:43:08;;;;;;;15.52;9.50;;;11.10;99.90;;;;;;5113828;28;20052;-60
2022/10/04 02:45:43;;;;;;;14.13;7.65;;;11.10;99.90;;;;;;5113937;28;20051;-61
2022/10/04 02:48:27;;;;;;;15.88;8.52;;;11.00;99.90;;;;;;5113672;28;20051;-60
2022/10/04 02:50:57;;;;;;;14.82;9.20;;;11.00;99.90;;;;;;5095113;28;20055;-59
2022/10/04 02:53:31;;;;;;;16.17;8.50;;;11.00;99.90;;;;;;5113640;28;20490;-60
2022/10/04 02:56:01;;;;;;;15.48;8.07;;;11.00;99.90;;;;;;5113559;28;20054;-60
2022/10/04 02:58:28;;;;;;;17.17;8.60;;;11.00;99.90;;;;;;5095733;28;20556;-60
2022/10/04 03:00:57;;;;;;;16.42;7.82;;;11.00;99.90;;;;;;5113242;28;20487;-60
2022/10/04 03:03:26;;;;;;;19.88;9.63;;;11.00;99.90;;;;;;5094273;28;20051;-60
2022/10/04 03:05:59;;;;;;;20.15;8.30;;;11.00;99.90;;;;;;5114128;28;20055;-60
2022/10/04 03:08:27;;;;;;;15.02;8.48;;;11.00;99.90;;;;;;5095365;28;20491;-60
2022/10/04 03:10:55;;;;;;;16.45;8.20;;;11.00;99.90;;;;;;5094466;28;20055;-61
2022/10/04 03:13:23;;;;;;;16.15;8.10;;;11.00;99.90;;;;;;5095587;28;20117;-61
2022/10/04 03:15:51;;;;;;;17.90;8.90;;;11.00;99.90;;;;;;5094937;28;20071;-61
2022/10/04 03:18:19;;;;;;;22.23;8.70;;;10.90;99.90;;;;;;5094830;28;20498;-61
2022/10/04 03:20:46;;;;;;;14.32;8.00;;;10.90;99.90;;;;;;5113158;28;20052;-61
2022/10/04 03:23:15;;;;;;;15.30;8.20;;;10.90;99.90;;;;;;5113518;28;20557;-61
2022/10/04 03:25:49;;;;;;;17.50;8.45;;;10.90;99.90;;;;;;5112518;28;20048;-61
2022/10/04 03:28:16;;;;;;;19.67;8.32;;;10.90;99.90;;;;;;5094966;28;20063;-60
2022/10/04 03:30:46;;;;;;;16.15;8.52;;;10.80;99.90;;;;;;5113258;28;20351;-60
2022/10/04 03:33:18;;;;;;;18.98;8.82;;;10.80;99.90;;;;;;5095035;28;20063;-63
2022/10/04 03:35:48;;;;;;;19.08;9.10;;;10.80;99.90;;;;;;5112581;28;20410;-60
2022/10/04 03:38:16;;;;;;;21.80;8.75;;;10.70;99.90;;;;;;5094782;28;20878;-60
2022/10/04 03:40:50;;;;;;;13.35;7.40;;;10.70;99.90;;;;;;5112378;28;20055;-60
2022/10/04 03:43:17;;;;;;;16.33;8.45;;;10.70;99.90;;;;;;5113158;28;20065;-60
2022/10/04 03:45:46;;;;;;;12.57;7.65;;;10.60;99.90;;;;;;5112776;28;20075;-59
2022/10/04 03:48:16;;;;;;;12.45;6.97;;;10.60;99.90;;;;;;5108543;28;20047;-60
2022/10/04 03:50:47;;;;;;;13.27;7.68;;;10.80;99.90;;;;;;5088193;28;20096;-60
2022/10/04 03:53:24;;;;;;;17.45;8.55;;;10.70;99.90;;;;;;5114836;27;20051;-60
2022/10/04 03:55:51;;;;;;;15.07;6.97;;;11.00;99.90;;;;;;5105582;28;20048;-61
2022/10/04 03:58:20;;;;;;;11.32;6.63;;;11.10;99.90;;;;;;5108199;28;20051;-59
2022/10/04 04:01:04;;;;;;;14.40;7.43;;;11.20;99.90;;;;;;5086049;28;20050;-61
2022/10/04 04:03:38;;;;;;;17.17;9.38;;;11.50;99.90;;;;;;5088121;28;20490;-60
2022/10/04 04:06:14;;;;;;;23.48;8.98;;;11.50;99.90;;;;;;5105832;28;20040;-61
2022/10/04 04:08:43;;;;;;;15.55;8.23;;;11.50;99.90;;;;;;5090563;28;20060;-61
2022/10/04 04:11:17;;;;;;;19.58;8.90;;;11.60;99.90;;;;;;5087018;28;20100;-60
2022/10/04 04:13:50;;;;;;;17.05;8.32;;;11.60;99.90;;;;;;5101904;28;20482;-61
2022/10/04 04:16:20;;;;;;;22.73;9.88;;;11.50;99.90;;;;;;5106465;28;20047;-60
2022/10/04 04:18:49;;;;;;;17.60;7.80;;;11.50;99.90;;;;;;5108926;28;20475;-59
2022/10/04 04:21:18;;;;;;;17.95;6.68;;;11.40;99.90;;;;;;5103886;28;20051;-60
2022/10/04 04:23:49;;;;;;;18.83;7.97;;;11.60;99.90;;;;;;5103095;28;20047;-60
2022/10/04 04:26:23;;;;;;;12.75;8.35;;;11.80;99.90;;;;;;5103490;28;20097;-62
2022/10/04 04:28:53;;;;;;;17.52;7.88;;;11.90;99.90;;;;;;5102052;28;20048;-61
2022/10/04 04:31:25;;;;;;;11.77;7.38;;;11.90;99.90;;;;;;5105161;28;20529;-61
2022/10/04 04:33:59;;;;;;;18.67;7.68;;;11.90;99.90;;;;;;5109772;28;20059;-61
2022/10/04 04:36:27;;;;;;;13.48;7.30;;;11.80;99.90;;;;;;5089573;28;20051;-61
2022/10/04 04:41:40;;;;;;;15.88;8.77;;;11.60;99.90;;;;;;5110765;28;20043;-61
2022/10/04 04:44:17;;;;;;;12.77;8.30;;;11.50;99.90;;;;;;5092730;28;20056;-60
2022/10/04 04:46:46;;;;;;;12.23;7.85;;;11.30;99.90;;;;;;5096180;28;20126;-61
2022/10/04 04:49:16;;;;;;;13.65;9.02;;;11.10;99.90;;;;;;5109732;28;20445;-60
2022/10/04 04:51:48;;;;;;;16.40;9.40;;;11.00;99.90;;;;;;5075611;28;20109;-59
2022/10/04 04:54:17;;;;;;;20.98;9.60;;;10.80;99.90;;;;;;5075744;28;20074;-60
2022/10/04 04:56:47;;;;;;;21.92;10.25;;;10.80;99.90;;;;;;5075806;28;20060;-60
2022/10/04 04:59:15;;;;;;;13.50;9.32;;;10.70;99.90;;;;;;5079858;28;20044;-60
2022/10/04 05:01:44;;;;;;;15.57;8.70;;;10.60;99.90;;;;;;5074610;28;20055;-61
2022/10/04 05:04:20;;;;;;;14.93;10.02;;;10.60;99.90;;;;;;5092969;28;20048;-60
2022/10/04 05:06:49;;;;;;;19.92;9.52;;;10.50;99.90;;;;;;5101625;28;20077;-60
2022/10/04 05:09:28;;;;;;;19.15;10.32;;;10.50;99.90;;;;;;5104547;28;20052;-59
2022/10/04 05:12:01;;;;;;;20.33;10.20;;;10.40;99.90;;;;;;5085708;28;20498;-61
2022/10/04 05:14:31;;;;;;;21.35;9.98;;;10.40;99.90;;;;;;5103642;28;20040;-60
2022/10/04 05:16:58;;;;;;;20.67;10.17;;;10.30;99.90;;;;;;5085511;28;20055;-60
2022/10/04 05:19:30;;;;;;;15.52;9.38;;;10.30;99.90;;;;;;5091173;28;20358;-61
2022/10/04 05:21:58;;;;;;;17.55;10.32;;;10.20;99.90;;;;;;5089306;28;20054;-60
2022/10/04 05:24:28;;;;;;;19.13;10.73;;;10.20;99.90;;;;;;5104608;28;20043;-61
2022/10/04 05:26:58;;;;;;;21.80;10.93;;;10.10;99.90;;;;;;5088673;28;20456;-60
2022/10/04 05:29:28;;;;;;;21.40;10.50;;;10.10;99.90;;;;;;5104463;28;20100;-60
2022/10/04 05:32:12;;;;;;;22.08;11.02;;;10.00;99.90;;;;;;5088077;28;20063;-60
2022/10/04 05:34:44;;;;;;;18.40;10.95;;;9.90;99.90;;;;;;5094249;28;20138;-60
2022/10/04 05:37:43;;;;;;;18.20;11.45;;;9.90;99.90;;;;;;5120800;27;20048;-60
2022/10/04 05:40:27;;;;;;;20.38;11.18;;;9.90;99.90;;;;;;5091813;28;20482;-60
2022/10/04 05:42:57;;;;;;;18.60;11.25;;;9.80;99.90;;;;;;5103876;28;20052;-60
2022/10/04 05:45:26;;;;;;;17.75;12.70;;;9.80;99.90;;;;;;5087289;28;20486;-60
2022/10/04 05:47:55;;;;;;;21.25;12.07;;;9.80;99.90;;;;;;5088597;28;20498;-61
2022/10/04 05:50:29;;;;;;;23.00;12.23;;;9.80;99.90;;;;;;5107437;27;20504;-60
2022/10/04 05:53:18;;;;;;;15.88;11.60;;;9.70;99.90;;;;;;5104939;27;20055;-61
2022/10/04 05:55:52;;;;;;;19.40;11.98;;;9.70;99.90;;;;;;5109110;28;20449;-59
2022/10/04 05:58:36;;;;;;;22.80;12.43;;;9.70;99.90;;;;;;5095417;28;20575;-60
2022/10/04 06:01:16;;;;;;;24.80;13.75;;;9.70;99.90;;;;;;5092479;28;20075;-60
2022/10/04 06:04:08;;;;;;;18.75;12.98;;;9.60;99.90;;;;;;5093240;28;20055;-60
2022/10/04 06:06:44;;;;;;;20.25;12.98;;;9.70;99.90;;;;;;5091796;28;20483;-61
2022/10/04 06:09:20;;;;;;;18.95;12.43;;;9.70;99.90;;;;;;5113888;28;20100;-61
2022/10/04 06:12:00;;;;;;;20.27;13.25;;;9.70;99.90;;;;;;5096039;28;20051;-62
2022/10/04 06:14:45;;;;;;;27.05;14.30;;;9.70;99.90;;;;;;5095900;28;20383;-61
2022/10/04 06:17:51;;;;;;;20.70;13.15;;;9.70;99.90;;;;;;5114577;28;20070;-61
2022/10/04 06:20:39;;;;;;;18.92;13.88;;;9.80;99.90;;;;;;5095019;28;20047;-60
2022/10/04 06:23:13;;;;;;;24.52;12.52;;;9.80;99.90;;;;;;5096145;28;20457;-60
2022/10/04 06:25:45;;;;;;;23.55;13.07;;;9.90;99.90;;;;;;5114492;28;20044;-61
2022/10/04 06:28:19;;;;;;;23.90;13.77;;;10.00;99.90;;;;;;5095190;28;20048;-61
2022/10/04 06:31:02;;;;;;;21.30;12.65;;;10.10;99.90;;;;;;5100685;28;20035;-61
2022/10/04 06:33:49;;;;;;;17.80;13.23;;;10.20;99.90;;;;;;5095919;28;20479;-61
2022/10/04 06:36:36;;;;;;;21.60;12.85;;;10.30;99.90;;;;;;5113802;28;20043;-60
2022/10/04 06:39:25;;;;;;;22.38;11.48;;;10.50;99.90;;;;;;5095521;28;20066;-59
2022/10/04 06:42:17;;;;;;;18.95;11.88;;;10.50;99.90;;;;;;5113109;28;20487;-59
2022/10/04 06:45:09;;;;;;;23.20;11.85;;;10.60;99.90;;;;;;5113902;28;20063;-59
2022/10/04 06:48:01;;;;;;;16.85;11.93;;;10.70;99.90;;;;;;5093869;28;20048;-59
2022/10/04 06:50:36;;;;;;;22.45;11.50;;;10.90;99.90;;;;;;5074563;28;20495;-60
2022/10/04 06:53:16;;;;;;;15.40;10.82;;;11.10;99.90;;;;;;5093411;28;20056;-60
2022/10/04 06:56:03;;;;;;;23.83;11.70;;;11.40;99.90;;;;;;5093166;28;20044;-60
2022/10/04 06:59:03;;;;;;;16.10;10.40;;;11.80;99.90;;;;;;5097057;28;20046;-60
2022/10/04 07:01:33;;;;;;;15.45;10.40;;;12.10;99.90;;;;;;5095000;28;20051;-60
2022/10/04 07:04:04;;;;;;;;;;;12.30;99.90;;;;;;5089870;28;20066;-61
2022/10/04 07:06:37;;;;;;;15.25;10.25;;;12.70;99.90;;;;;;5122883;27;19920;-60
2022/10/04 07:09:07;;;;;;;17.92;10.05;;;14.00;99.90;;;;;;5077800;28;20056;-60
2022/10/04 07:11:44;;;;;;;14.27;8.53;;;15.10;99.90;;;;;;5077666;28;20063;-59
2022/10/04 07:14:16;;;;;;;13.43;8.32;;;16.10;99.90;;;;;;5113360;28;20328;-60
2022/10/04 07:16:48;;;;;;;12.65;8.30;;;17.20;99.90;;;;;;5112915;28;20051;-60
2022/10/04 07:19:28;;;;;;;13.00;8.55;;;18.40;99.90;;;;;;5112828;28;20047;-61
2022/10/04 07:22:03;;;;;;;13.82;8.20;;;18.30;99.90;;;;;;5107844;28;20486;-60
2022/10/04 07:24:43;;;;;;;15.65;7.97;;;17.60;99.90;;;;;;5112678;28;20050;-60
2022/10/04 07:27:17;;;;;;;12.60;8.20;;;16.50;99.90;;;;;;5112918;28;20494;-61
2022/10/04 07:29:45;;;;;;;16.73;8.02;;;15.60;99.90;;;;;;5112963;28;20051;-60
2022/10/04 07:32:20;;;;;;;12.23;8.40;;;15.00;99.90;;;;;;5112682;28;20047;-60
2022/10/04 07:34:52;;;;;;;15.40;8.60;;;14.70;99.90;;;;;;5112798;28;20048;-61
2022/10/04 07:37:21;;;;;;;13.43;7.70;;;15.70;99.90;;;;;;5108667;28;20100;-60
2022/10/04 07:39:52;;;;;;;12.23;8.30;;;17.30;99.90;;;;;;5103093;28;20093;-60
2022/10/04 07:42:29;;;;;;;10.90;7.28;;;18.80;99.90;;;;;;5094811;28;20056;-61
2022/10/04 07:45:08;;;;;;;12.63;7.63;;;19.60;99.90;;;;;;5112821;28;20047;-61
2022/10/04 07:47:35;;;;;;;12.07;7.75;;;19.50;99.90;;;;;;5094769;28;20087;-60
2022/10/04 07:50:20;;;;;;;12.10;7.18;;;19.10;99.90;;;;;;5112924;28;20402;-60
2022/10/04 07:52:53;;;;;;;10.77;7.63;;;17.90;99.90;;;;;;5094022;28;20552;-61
2022/10/04 07:55:28;;;;;;;11.82;7.25;;;17.30;99.90;;;;;;5112723;28;20395;-61
2022/10/04 07:58:16;;;;;;;13.98;7.38;;;16.60;99.90;;;;;;5113222;28;20052;-60
2022/10/04 08:00:49;;;;;;;14.93;7.63;;;16.10;99.90;;;;;;5096084;28;20040;-60
2022/10/04 08:03:39;;;;;;;15.90;8.18;;;15.80;99.90;;;;;;5115108;28;20043;-60
2022/10/04 08:06:12;;;;;;;15.23;7.13;;;15.50;99.90;;;;;;5098069;28;20051;-60
2022/10/04 08:08:53;;;;;;;15.48;8.07;;;15.20;99.90;;;;;;5115637;28;20055;-60
2022/10/04 08:11:23;;;;;;;;;;;15.00;99.90;;;;;;5098765;28;20047;-62
2022/10/04 08:13:58;;;;;;;;;;;15.00;99.90;;;;;;5116999;28;20363;-60
2022/10/04 08:16:35;;;;;;;15.70;8.05;;;15.60;99.90;;;;;;5116929;28;19972;-61
2022/10/04 08:19:27;;;;;;;13.27;7.50;;;17.00;99.90;;;;;;5117285;28;20503;-61
2022/10/04 08:22:01;;;;;;;12.45;7.57;;;18.70;99.90;;;;;;5098437;28;20085;-61
2022/10/04 08:24:37;;;;;;;15.20;7.25;;;19.90;99.90;;;;;;5116594;28;20048;-59
2022/10/04 08:27:25;;;;;;;16.10;6.90;;;21.00;99.90;;;;;;5116072;28;20047;-60
2022/10/04 08:30:08;;;;;;;10.80;6.50;;;22.00;99.90;;;;;;5116387;28;20047;-60
2022/10/04 08:33:05;;;;;;;11.43;7.03;;;22.60;98.50;;;;;;5116584;28;20100;-61
2022/10/04 08:35:36;;;;;;;8.20;5.75;;;23.60;96.50;;;;;;5094687;28;20139;-61
2022/10/04 08:38:41;;;;;;;10.80;6.07;;;24.10;97.30;;;;;;5078200;28;20052;-61
2022/10/04 08:41:57;;;;;;;10.63;6.15;;;24.50;93.20;;;;;;5095558;28;20040;-61
2022/10/04 08:45:00;;;;;;;8.60;6.00;;;24.50;93.30;;;;;;5096071;28;20445;-59
2022/10/04 08:48:06;;;;;;;10.90;6.22;;;24.30;92.00;;;;;;5095461;28;20461;-60
2022/10/04 08:51:17;;;;;;;12.68;5.60;;;24.40;92.00;;;;;;5095395;28;20051;-61
2022/10/04 08:54:28;;;;;;;9.18;5.30;;;24.80;90.80;;;;;;5077673;28;20182;-61
2022/10/04 08:57:05;;;;;;;9.68;5.28;;;25.10;90.20;;;;;;5077100;28;20101;-61
2022/10/04 09:00:03;;;;;;;7.85;5.05;;;25.40;90.40;;;;;;5114997;28;20048;-60
2022/10/04 09:03:14;;;;;;;9.73;4.40;;;25.40;89.30;;;;;;5097543;28;20375;-61
2022/10/04 09:05:57;;;;;;;8.38;4.70;;;25.30;86.70;;;;;;5115683;28;20503;-60
2022/10/04 09:09:03;;;;;;;7.90;4.50;;;25.50;86.30;;;;;;5116309;28;20052;-61
2022/10/04 09:11:45;;;;;;;8.35;4.72;;;25.50;87.10;;;;;;5097438;28;20040;-60
2022/10/04 09:14:38;;;;;;;8.98;4.18;;;25.00;88.20;;;;;;5114760;28;20111;-60
2022/10/04 09:17:19;;;;;;;5.75;4.30;;;25.10;87.50;;;;;;5115143;28;20052;-60
2022/10/04 09:19:56;;;;;;;8.52;4.47;;;25.10;85.30;;;;;;5115572;28;20103;-60
2022/10/04 09:22:45;;;;;;;6.10;3.67;;;25.30;85.20;;;;;;5115603;28;20083;-60
2022/10/04 09:25:57;;;;;;;6.90;3.90;;;25.40;84.00;;;;;;5097237;28;20483;-61
2022/10/04 09:28:49;;;;;;;6.65;3.80;;;25.40;83.60;;;;;;5115097;28;20101;-61
2022/10/04 09:31:41;;;;;;;7.63;3.97;;;25.00;84.30;;;;;;5114751;28;20043;-60
2022/10/04 09:34:28;;;;;;;7.57;3.92;;;25.10;82.90;;;;;;5095165;28;20480;-60
2022/10/04 09:37:15;;;;;;;7.53;4.05;;;25.30;84.70;;;;;;5097260;28;20055;-61
2022/10/04 09:40:07;;;;;;;7.53;3.70;;;25.60;83.90;;;;;;5114773;28;20387;-60
2022/10/04 09:43:03;;;;;;;7.70;3.78;;;26.00;82.30;;;;;;5115241;28;20048;-61
2022/10/04 09:46:16;;;;;;;6.35;4.00;;;25.70;80.60;;;;;;5096295;28;20455;-61
2022/10/04 09:48:55;;;;;;;7.25;4.15;;;25.60;81.30;;;;;;5043025;28;20053;-60
2022/10/04 09:51:40;;;;;;;13.07;4.43;;;26.10;82.60;;;;;;5114475;28;20570;-60
2022/10/04 09:54:39;;;;;;;7.43;4.10;;;26.30;82.60;;;;;;5115177;28;20066;-60
2022/10/04 09:57:14;;;;;;;9.23;3.80;;;25.70;79.20;;;;;;5096959;28;20135;-61
2022/10/04 10:00:13;;;;;;;6.35;3.80;;;25.70;81.70;;;;;;5096104;28;20055;-61
2022/10/04 10:03:07;;;;;;;9.32;3.83;;;25.00;79.20;;;;;;5114457;28;20054;-61
2022/10/04 10:05:53;;;;;;;7.53;4.05;;;25.10;80.80;;;;;;5114349;28;20097;-61
2022/10/04 10:08:26;;;;;;;7.63;4.40;;;25.50;80.60;;;;;;5094492;28;20051;-60
2022/10/04 10:14:26;;;;;;;8.02;4.30;;;26.00;79.70;;;;;;5106722;28;20415;-61
2022/10/04 10:17:02;;;;;;;7.50;4.53;;;26.00;79.20;;;;;;5104124;28;20090;-61
2022/10/04 10:19:57;;;;;;;8.18;4.38;;;26.60;79.40;;;;;;5113629;28;20560;-60
2022/10/04 10:22:51;;;;;;;8.32;5.03;;;26.70;78.40;;;;;;5089917;28;20486;-61
2022/10/04 10:25:34;;;;;;;7.60;5.05;;;26.20;77.90;;;;;;5096430;28;20063;-61
2022/10/04 10:28:30;;;;;;;7.10;4.35;;;26.10;78.30;;;;;;5095894;28;20138;-61
2022/10/04 10:31:17;;;;;;;6.93;4.25;;;26.30;79.10;;;;;;5113692;28;20050;-61
2022/10/04 10:34:11;;;;;;;7.93;4.22;;;26.20;78.70;;;;;;5114094;28;20051;-61
2022/10/04 10:37:07;;;;;;;8.45;3.92;;;26.40;78.50;;;;;;5095859;28;20059;-61
2022/10/04 10:40:16;;;;;;;8.68;3.90;;;26.90;78.80;;;;;;5096329;28;20123;-62
2022/10/04 10:43:17;;;;;;;6.78;3.47;;;27.30;78.00;;;;;;5048811;28;20455;-62
2022/10/04 10:46:04;;;;;;;7.28;4.28;;;27.60;76.80;;;;;;5113902;28;20078;-62
2022/10/04 10:49:00;;;;;;;7.18;3.38;;;27.40;76.80;;;;;;5113504;28;20083;-62
2022/10/04 10:51:52;;;;;;;7.72;3.75;;;27.60;76.00;;;;;;5113651;28;20051;-61
2022/10/04 10:54:54;;;;;;;8.38;3.72;;;27.10;76.10;;;;;;5113381;28;20043;-61
2022/10/04 10:57:40;;;;;;;6.45;2.97;;;26.10;76.70;;;;;;5074152;28;20059;-61
2022/10/04 11:00:21;;;;;;;6.78;3.97;;;24.90;78.60;;;;;;5093387;28;20048;-61
2022/10/04 11:03:29;;;;;;;6.07;3.78;;;23.60;82.00;;;;;;5093101;28;20377;-60
2022/10/04 11:06:34;;;;;;;7.22;4.25;;;23.00;84.10;;;;;;5093359;28;20048;-60
2022/10/04 11:09:40;;;;;;;6.70;4.20;;;23.10;85.20;;;;;;5093264;28;20054;-61
2022/10/04 11:12:37;;;;;;;7.80;4.10;;;23.90;83.90;;;;;;5090637;28;20051;-61
2022/10/04 11:15:41;;;;;;;6.25;3.63;;;25.00;81.70;;;;;;5093705;28;20430;-60
2022/10/04 11:18:49;;;;;;;6.47;3.28;;;25.50;80.40;;;;;;5093053;28;20048;-61
2022/10/04 11:21:46;;;;;;;6.97;3.47;;;25.70;78.30;;;;;;5075153;28;20044;-61
2022/10/04 11:24:46;;;;;;;5.65;3.40;;;25.80;77.20;;;;;;5068967;28;20060;-61
2022/10/04 11:27:27;;;;;;;6.90;3.63;;;26.40;77.10;;;;;;5075201;28;20063;-60
2022/10/04 11:30:16;;;;;;;6.35;3.60;;;26.80;77.60;;;;;;5074289;28;20059;-62
2022/10/04 11:33:23;;;;;;;8.98;4.03;;;26.90;76.60;;;;;;5067029;28;20403;-60
2022/10/04 11:36:31;;;;;;;8.25;3.80;;;26.70;76.50;;;;;;5093921;28;20055;-61
2022/10/04 11:39:38;;;;;;;7.18;3.88;;;26.80;76.90;;;;;;5092853;28;20105;-61
2022/10/04 11:42:17;;;;;;;6.15;3.83;;;26.80;75.90;;;;;;5074769;28;20051;-61
2022/10/04 11:45:18;;;;;;;5.72;3.47;;;26.90;76.10;;;;;;5092439;28;20514;-61
2022/10/04 11:48:01;;;;;;;8.18;4.38;;;27.00;76.50;;;;;;5092934;28;20452;-61
2022/10/04 11:50:41;;;;;;;10.02;3.80;;;26.70;77.90;;;;;;5092562;28;20109;-61
2022/10/04 11:53:51;;;;;;;4.88;3.35;;;26.80;75.60;;;;;;5074711;28;20469;-61
2022/10/04 11:56:36;;;;;;;6.55;3.60;;;26.70;75.60;;;;;;5089274;28;20055;-61
2022/10/04 11:59:18;;;;;;;6.65;3.75;;;26.60;75.30;;;;;;5092343;28;20052;-61
2022/10/04 12:02:22;;;;;;;7.63;4.15;;;26.60;75.80;;;;;;5074596;28;20085;-62
2022/10/04 12:05:16;;;;;;;9.32;4.38;;;26.80;76.60;;;;;;5092291;28;20097;-61
2022/10/04 12:07:53;;;;;;;6.07;3.15;;;27.30;76.60;;;;;;5092458;28;20043;-61
2022/10/04 12:10:25;;;;;;;6.97;3.50;;;28.10;74.70;;;;;;5092756;28;20052;-62
2022/10/04 12:13:23;;;;;;;8.77;4.07;;;28.50;72.90;;;;;;5092015;28;20105;-61
2022/10/04 12:16:28;;;;;;;7.00;3.40;;;28.00;74.00;;;;;;5074640;28;20564;-61
2022/10/04 12:19:28;;;;;;;6.82;3.45;;;28.00;73.70;;;;;;5039418;28;20064;-61
2022/10/04 12:22:15;;;;;;;8.27;3.47;;;27.80;73.10;;;;;;5074259;28;20101;-61
2022/10/04 12:25:10;;;;;;;5.20;3.70;;;27.40;72.40;;;;;;5074588;28;20105;-61
2022/10/04 12:28:16;;;;;;;7.63;4.10;;;27.80;73.30;;;;;;5091970;28;20048;-62
2022/10/04 12:31:07;;;;;;;9.32;4.07;;;27.00;72.20;;;;;;5091035;28;20454;-62
2022/10/04 12:33:39;;;;;;;9.40;3.83;;;26.70;73.20;;;;;;5091985;28;20048;-62
2022/10/04 12:36:23;;;;;;;6.28;3.67;;;26.80;74.20;;;;;;5074458;28;20060;-62
2022/10/04 12:39:02;;;;;;;7.65;3.95;;;27.00;74.30;;;;;;5074775;28;20516;-62
2022/10/04 12:41:39;;;;;;;7.05;3.80;;;27.40;73.90;;;;;;5091871;28;20044;-62
2022/10/04 12:44:22;;;;;;;7.40;3.70;;;27.70;73.70;;;;;;5074358;28;20471;-61
2022/10/04 12:47:01;;;;;;;6.53;3.40;;;27.90;72.90;;;;;;5092175;28;20143;-62
2022/10/04 12:49:43;;;;;;;7.18;3.53;;;27.90;73.00;;;;;;5093873;28;20059;-60
2022/10/04 12:52:16;;;;;;;6.25;3.55;;;27.80;71.40;;;;;;5096176;28;20070;-61
2022/10/04 12:54:45;;;;;;;7.15;3.58;;;27.00;72.70;;;;;;5077554;28;20060;-61
2022/10/04 12:57:36;;;;;;;6.38;3.50;;;26.80;73.30;;;;;;5077649;28;20491;-62
2022/10/04 13:00:15;;;;;;;5.97;3.50;;;27.20;73.10;;;;;;5096119;28;20101;-61
2022/10/04 13:03:08;;;;;;;6.68;3.40;;;27.20;72.60;;;;;;5095458;28;20048;-62
2022/10/04 13:05:42;;;;;;;5.53;3.45;;;27.00;72.70;;;;;;5095833;28;20040;-61
2022/10/04 13:08:22;;;;;;;5.18;3.30;;;26.90;72.50;;;;;;5077019;28;20097;-60
2022/10/04 13:11:17;;;;;;;7.30;3.70;;;26.70;72.00;;;;;;5095447;28;20047;-60
2022/10/04 13:14:19;;;;;;;4.35;3.30;;;26.40;72.80;;;;;;5095759;28;20139;-61
2022/10/04 13:16:55;;;;;;;4.97;3.15;;;26.30;74.00;;;;;;5089972;28;20052;-61
2022/10/04 13:19:28;;;;;;;6.47;3.42;;;26.40;73.60;;;;;;5077342;28;20052;-60
2022/10/04 13:22:14;;;;;;;7.63;3.60;;;26.40;72.70;;;;;;5076722;28;20051;-60
2022/10/04 13:24:56;;;;;;;5.93;3.17;;;26.10;72.60;;;;;;5095348;28;20454;-61
2022/10/04 13:27:30;;;;;;;6.32;3.25;;;26.60;73.00;;;;;;5095467;28;20044;-60
2022/10/04 13:30:05;;;;;;;5.72;3.60;;;26.90;72.40;;;;;;5094498;28;20098;-60
2022/10/04 13:32:42;;;;;;;6.30;3.25;;;26.70;71.50;;;;;;5095179;28;20094;-61
2022/10/04 13:35:18;;;;;;;5.65;3.00;;;26.40;73.00;;;;;;5095385;28;20056;-61
2022/10/04 13:38:09;;;;;;;5.45;3.35;;;26.80;72.70;;;;;;5094928;28;20052;-61
2022/10/04 13:40:48;;;;;;;6.65;3.42;;;26.80;71.40;;;;;;5077223;28;20052;-61
2022/10/04 13:43:54;;;;;;;5.18;2.95;;;25.90;71.70;;;;;;5094500;28;20052;-61
2022/10/04 13:46:31;;;;;;;6.47;3.72;;;24.80;74.30;;;;;;5094888;28;20047;-61
2022/10/04 13:49:13;;;;;;;5.13;3.10;;;24.30;75.80;;;;;;5095016;28;20052;-60
2022/10/04 13:56:35;;;;;;;7.57;3.40;;;23.80;76.80;;;;;;5104790;27;20040;-60
2022/10/04 13:57:46;;;;;;;5.22;3.25;;;23.30;78.00;;;;;;5114646;28;20114;-60